createdAt,value
2022-08-19T00:01:32.601Z,101244.59
2022-08-19T00:04:08.055Z,101243.75
2022-08-19T00:06:38.805Z,101273.53
2022-08-19T00:09:08.946Z,101283.47
2022-08-19T00:11:38.597Z,101268.75
2022-08-19T00:14:08.610Z,101279.25
2022-08-19T00:16:36.683Z,101280.25
2022-08-19T00:19:05.253Z,101285.19
2022-08-19T00:21:35.890Z,101293.44
2022-08-19T00:24:06.418Z,101304.22
2022-08-19T00:26:35.100Z,101362.88
2022-08-19T00:29:03.167Z,101315.28
2022-08-19T00:31:32.199Z,101328.63
2022-08-19T00:34:00.717Z,101339.09
2022-08-19T00:36:29.575Z,101360.63
2022-08-19T00:38:59.511Z,101365.19
2022-08-19T00:41:29.684Z,101382.22
2022-08-19T00:44:03.488Z,101355.56
2022-08-19T00:46:32.688Z,101392.56
2022-08-19T00:49:01.797Z,101376.00
2022-08-19T00:51:33.699Z,101411.13
2022-08-19T00:54:03.757Z,101431.44
2022-08-19T00:56:33.651Z,101436.69
2022-08-19T00:59:02.905Z,101464.09
2022-08-19T01:01:30.993Z,101474.75
2022-08-19T01:03:59.432Z,101480.84
2022-08-19T01:06:27.940Z,101504.81
2022-08-19T01:08:57.003Z,101488.22
2022-08-19T01:11:25.084Z,101513.91
2022-08-19T01:13:56.217Z,101510.50
2022-08-19T01:16:27.464Z,101548.69
2022-08-19T01:18:55.768Z,101535.53
2022-08-19T01:21:30.112Z,101561.19
2022-08-19T01:23:59.636Z,101582.22
2022-08-19T01:26:29.046Z,101575.13
2022-08-19T01:29:02.569Z,101562.34
2022-08-19T01:31:33.549Z,101595.44
2022-08-19T01:34:03.095Z,101586.91
2022-08-19T01:36:36.821Z,101617.59
2022-08-19T01:39:08.894Z,101629.97
2022-08-19T01:41:37.203Z,101663.31
2022-08-19T01:44:17.395Z,101672.72
2022-08-19T01:46:49.433Z,101665.91
2022-08-19T01:49:20.036Z,101667.59
2022-08-19T01:51:48.692Z,101682.94
2022-08-19T01:54:23.118Z,101707.09
2022-08-19T01:57:00.136Z,101690.31
2022-08-19T01:59:28.490Z,101717.28
2022-08-19T02:01:56.496Z,101728.97
2022-08-19T02:04:26.654Z,101751.41
2022-08-19T02:06:54.670Z,101755.81
2022-08-19T02:09:24.079Z,101760.50
2022-08-19T02:11:52.232Z,101794.47
2022-08-19T02:14:20.398Z,101783.38
2022-08-19T02:16:48.814Z,101789.34
2022-08-19T02:19:16.922Z,101800.56
2022-08-19T02:21:45.659Z,101806.84
2022-08-19T02:24:14.310Z,101793.47
2022-08-19T02:26:43.737Z,101813.94
2022-08-19T02:29:12.010Z,101815.06
2022-08-19T02:31:40.104Z,101827.16
2022-08-19T02:34:08.076Z,101833.28
2022-08-19T02:36:36.426Z,101825.00
2022-08-19T02:39:09.764Z,101857.19
2022-08-19T02:41:37.902Z,101843.09
2022-08-19T02:44:28.663Z,101855.47
2022-08-19T02:46:56.524Z,101843.22
2022-08-19T02:49:24.676Z,101859.31
2022-08-19T02:51:52.627Z,101843.75
2022-08-19T02:54:21.069Z,101879.63
2022-08-19T02:56:49.291Z,101847.47
2022-08-19T02:59:18.605Z,101867.53
2022-08-19T03:01:51.045Z,101834.25
2022-08-19T03:04:20.272Z,101840.06
2022-08-19T03:06:49.445Z,101867.66
2022-08-19T03:09:19.203Z,101875.03
2022-08-19T03:11:47.331Z,101911.91
2022-08-19T03:14:20.310Z,101881.84
2022-08-19T03:16:51.788Z,101916.69
2022-08-19T03:19:22.318Z,101914.81
2022-08-19T03:21:51.126Z,101942.88
2022-08-19T03:24:21.191Z,101913.97
2022-08-19T03:26:52.440Z,101935.94
2022-08-19T03:29:30.364Z,101955.53
2022-08-19T03:32:01.708Z,101964.50
2022-08-19T03:34:32.064Z,101956.94
2022-08-19T03:37:05.534Z,101972.59
2022-08-19T03:39:33.687Z,101973.72
2022-08-19T03:42:31.899Z,102075.84
2022-08-19T03:44:53.571Z,102110.63
2022-08-19T03:47:21.689Z,102093.25
2022-08-19T03:49:49.734Z,102106.34
2022-08-19T03:52:17.641Z,102081.31
2022-08-19T03:54:46.017Z,102054.84
2022-08-19T03:57:14.506Z,102066.50
2022-08-19T03:59:42.756Z,102103.50
2022-08-19T04:02:14.285Z,102085.84
2022-08-19T04:04:45.123Z,102065.50
2022-08-19T04:07:16.971Z,102084.16
2022-08-19T04:09:45.731Z,102092.25
2022-08-19T04:12:13.976Z,102066.72
2022-08-19T04:14:42.649Z,102089.56
2022-08-19T04:17:14.091Z,102098.06
2022-08-19T04:19:44.066Z,102059.44
2022-08-19T04:22:13.058Z,102103.69
2022-08-19T04:24:41.250Z,102237.50
2022-08-19T04:27:15.963Z,102277.38
2022-08-19T04:29:44.251Z,102295.44
2022-08-19T04:32:16.710Z,102265.69
2022-08-19T04:35:02.195Z,102242.19
2022-08-19T04:37:35.705Z,102224.78
2022-08-19T04:40:25.580Z,102148.66
2022-08-19T04:42:54.741Z,102261.44
2022-08-19T04:45:23.308Z,102218.84
2022-08-19T04:48:26.877Z,102298.59
2022-08-19T04:50:46.784Z,102332.75
2022-08-19T04:53:14.957Z,102254.50
2022-08-19T04:55:43.984Z,102277.78
2022-08-19T04:58:12.068Z,102283.91
2022-08-19T05:00:41.982Z,102296.16
2022-08-19T05:03:11.684Z,102250.34
2022-08-19T05:05:45.144Z,102274.63
2022-08-19T05:08:31.253Z,102261.44
2022-08-19T05:10:59.800Z,102318.38
2022-08-19T05:13:28.528Z,102337.44
2022-08-19T05:15:58.647Z,102359.97
2022-08-19T05:18:46.846Z,102354.97
2022-08-19T05:21:35.682Z,102376.97
2022-08-19T05:24:04.228Z,102385.72
2022-08-19T05:26:32.318Z,102419.97
2022-08-19T05:29:00.737Z,102437.81
2022-08-19T05:31:28.764Z,102429.50
2022-08-19T05:33:59.602Z,102416.56
2022-08-19T05:36:28.113Z,102546.91
2022-08-19T05:38:56.909Z,102478.53
2022-08-19T05:41:30.455Z,102498.25
2022-08-19T05:43:58.981Z,102574.56
2022-08-19T05:46:28.149Z,102558.47
2022-08-19T05:48:57.569Z,102587.59
2022-08-19T05:51:29.231Z,102594.63
2022-08-19T05:53:57.782Z,102595.63
2022-08-19T05:56:26.175Z,102619.94
2022-08-19T05:58:55.279Z,102629.78
2022-08-19T06:01:28.294Z,102644.50
2022-08-19T06:03:56.610Z,102657.19
2022-08-19T06:06:26.022Z,102662.25
2022-08-19T06:08:53.993Z,102656.19
2022-08-19T06:11:24.399Z,102647.00
2022-08-19T06:13:59.746Z,102647.53
2022-08-19T06:16:41.780Z,102635.47
2022-08-19T06:19:12.810Z,102710.19
2022-08-19T06:21:44.477Z,102671.75
2022-08-19T06:24:16.158Z,102756.41
2022-08-19T06:29:23.831Z,102975.38
2022-08-19T06:31:54.907Z,103065.41
2022-08-19T06:34:23.083Z,103221.25
2022-08-19T06:36:53.671Z,103333.34
2022-08-19T06:39:26.308Z,103392.84
2022-08-19T06:41:58.903Z,103474.53
2022-08-19T06:44:31.813Z,103537.63
2022-08-19T06:46:59.884Z,103552.06
2022-08-19T06:49:32.607Z,103613.31
2022-08-19T06:52:02.597Z,103729.34
2022-08-19T06:54:37.797Z,103795.25
2022-08-19T06:57:22.208Z,103712.59
2022-08-19T06:59:50.431Z,103863.84
2022-08-19T07:04:52.650Z,103929.03
2022-08-19T07:07:23.252Z,103995.56
2022-08-19T07:09:59.974Z,104038.16
2022-08-19T07:12:32.378Z,104148.47
2022-08-19T07:15:00.646Z,104233.94
2022-08-19T07:17:30.108Z,104295.44
2022-08-19T07:20:05.437Z,104346.78
2022-08-19T07:22:38.934Z,104476.81
2022-08-19T07:25:21.895Z,104561.69
2022-08-19T07:28:01.574Z,104485.22
2022-08-19T07:30:34.201Z,104510.28
2022-08-19T07:33:03.446Z,104610.06
2022-08-19T07:35:33.161Z,104710.16
2022-08-19T07:38:04.989Z,104698.72
2022-08-19T07:40:35.314Z,104761.38
2022-08-19T07:43:03.266Z,104816.03
2022-08-19T07:45:34.605Z,104907.50
2022-08-19T07:48:02.716Z,104993.28
2022-08-19T07:50:32.585Z,105134.66
2022-08-19T07:53:01.999Z,105171.16
2022-08-19T07:55:42.026Z,105259.06
2022-08-19T07:58:17.563Z,105242.13
2022-08-19T08:00:47.363Z,105318.38
2022-08-19T08:03:16.673Z,105399.34
2022-08-19T08:06:03.501Z,105462.16
2022-08-19T08:08:51.479Z,105549.81
2022-08-19T08:11:23.998Z,105655.53
2022-08-19T08:14:00.963Z,105672.72
2022-08-19T08:16:33.341Z,105705.84
2022-08-19T08:19:02.959Z,105737.25
2022-08-19T08:21:36.751Z,105812.19
2022-08-19T08:24:06.553Z,105852.63
2022-08-19T08:26:34.980Z,105979.59
2022-08-19T08:29:03.224Z,105894.31
2022-08-19T08:31:42.549Z,105888.75
2022-08-19T08:34:15.410Z,105950.03
2022-08-19T08:36:47.119Z,106009.72
2022-08-19T08:39:19.353Z,106017.75
2022-08-19T08:41:55.271Z,106091.94
2022-08-19T08:44:26.056Z,106191.28
2022-08-19T08:47:01.350Z,106272.50
2022-08-19T08:49:35.746Z,106206.94
2022-08-19T08:52:07.407Z,106355.41
2022-08-19T08:54:49.159Z,106448.63
2022-08-19T08:57:28.923Z,106457.34
2022-08-19T09:00:07.252Z,106509.69
2022-08-19T09:02:43.586Z,106629.91
2022-08-19T09:05:16.667Z,106521.66
2022-08-19T09:07:53.183Z,106555.66
2022-08-19T09:10:34.069Z,106761.72
2022-08-19T09:13:14.344Z,106797.00
2022-08-19T09:15:52.069Z,107006.19
2022-08-19T09:18:20.920Z,107158.31
2022-08-19T09:20:49.770Z,107343.97
2022-08-19T09:23:18.273Z,107412.44
2022-08-19T09:25:59.363Z,107485.91
2022-08-19T09:28:31.084Z,107554.91
2022-08-19T09:31:04.323Z,107851.16
2022-08-19T09:33:35.829Z,107996.59
2022-08-19T09:36:08.600Z,108382.31
2022-08-19T09:38:37.845Z,108863.31
2022-08-19T09:41:15.716Z,109012.56
2022-08-19T09:43:49.044Z,109264.66
2022-08-19T09:46:23.891Z,109251.38
2022-08-19T09:48:55.554Z,109568.47
2022-08-19T09:51:33.063Z,109664.09
2022-08-19T09:54:05.190Z,110393.03
2022-08-19T09:56:37.349Z,110887.44
2022-08-19T09:59:05.766Z,111255.97
2022-08-19T10:01:34.919Z,110763.06
2022-08-19T10:04:14.580Z,110551.69
2022-08-19T10:06:53.758Z,110767.09
2022-08-19T10:09:34.319Z,111032.03
2022-08-19T10:12:11.139Z,111231.19
2022-08-19T10:14:41.527Z,111301.47
2022-08-19T10:17:19.843Z,111579.09
2022-08-19T10:19:55.777Z,111952.88
2022-08-19T10:22:25.674Z,112568.22
2022-08-19T10:24:55.309Z,112406.56
2022-08-19T10:27:26.355Z,112128.69
2022-08-19T10:29:54.963Z,112864.59
2022-08-19T10:32:34.387Z,112899.84
2022-08-19T10:35:02.854Z,113094.38
2022-08-19T10:37:42.319Z,113161.38
2022-08-19T10:40:24.766Z,112553.50
2022-08-19T10:42:54.486Z,112387.03
2022-08-19T10:45:28.132Z,112474.25
2022-08-19T10:47:56.825Z,112624.50
2022-08-19T10:50:42.054Z,112871.97
2022-08-19T10:53:10.912Z,112626.16
2022-08-19T10:55:59.783Z,112068.91
2022-08-19T10:58:29.380Z,112085.13
2022-08-19T11:00:59.599Z,111816.28
2022-08-19T11:03:28.774Z,112100.59
2022-08-19T11:06:01.641Z,111543.09
2022-08-19T11:08:31.669Z,111445.78
2022-08-19T11:11:04.324Z,111475.19
2022-08-19T11:13:39.953Z,111099.03
2022-08-19T11:16:11.290Z,110624.59
2022-08-19T11:18:41.335Z,110448.34
2022-08-19T11:21:15.414Z,110847.41
2022-08-19T11:23:44.293Z,110525.72
2022-08-19T11:26:12.599Z,110459.88
2022-08-19T11:28:47.677Z,110453.06
2022-08-19T11:31:18.103Z,110326.59
2022-08-19T11:33:47.648Z,109814.81
2022-08-19T11:36:17.089Z,109537.91
2022-08-19T11:38:45.684Z,109356.97
2022-08-19T11:41:13.805Z,109668.81
2022-08-19T11:43:46.356Z,110020.91
2022-08-19T11:46:16.110Z,110251.06
2022-08-19T11:48:47.209Z,110133.75
2022-08-19T11:51:19.435Z,109816.97
2022-08-19T11:53:48.069Z,109755.44
2022-08-19T11:56:16.122Z,109701.97
2022-08-19T11:58:48.694Z,109370.50
2022-08-19T12:01:19.421Z,109293.81
2022-08-19T12:03:48.935Z,108855.03
2022-08-19T12:06:22.077Z,108551.09
2022-08-19T12:08:50.201Z,108451.56
2022-08-19T12:11:18.342Z,108214.34
2022-08-19T12:13:48.796Z,108132.00
2022-08-19T12:16:20.073Z,108101.81
2022-08-19T12:18:49.157Z,107958.13
2022-08-19T12:21:17.550Z,107851.63
2022-08-19T12:23:47.506Z,107897.50
2022-08-19T12:26:15.528Z,107744.88
2022-08-19T12:28:43.726Z,107571.16
2022-08-19T12:31:35.171Z,107356.69
2022-08-19T12:34:03.666Z,107293.03
2022-08-19T12:36:31.927Z,107177.22
2022-08-19T12:39:01.842Z,107145.69
2022-08-19T12:41:30.412Z,107192.25
2022-08-19T12:43:59.256Z,107191.91
2022-08-19T12:46:27.136Z,107184.88
2022-08-19T12:48:56.799Z,107168.06
2022-08-19T12:51:32.908Z,107199.09
2022-08-19T12:54:08.337Z,107188.38
2022-08-19T12:56:38.163Z,107297.28
2022-08-19T12:59:09.144Z,107335.13
2022-08-19T13:01:39.565Z,107278.56
2022-08-19T13:04:09.954Z,107112.34
2022-08-19T13:06:38.156Z,107026.97
2022-08-19T13:09:06.943Z,106894.44
2022-08-19T13:11:35.433Z,106904.72
2022-08-19T13:14:05.073Z,106844.53
2022-08-19T13:16:33.946Z,106943.78
2022-08-19T13:19:06.557Z,106836.03
2022-08-19T13:21:45.911Z,106873.16
2022-08-19T13:24:14.409Z,106908.47
2022-08-19T13:26:46.150Z,107008.00
2022-08-19T13:29:31.813Z,106874.25
2022-08-19T13:32:18.661Z,106992.44
2022-08-19T13:34:49.780Z,106959.63
2022-08-19T13:37:39.081Z,106901.50
2022-08-19T13:40:08.706Z,106915.09
2022-08-19T13:42:36.661Z,106940.50
2022-08-19T13:45:05.925Z,106821.69
2022-08-19T13:47:35.496Z,106836.16
2022-08-19T13:50:05.177Z,106842.91
2022-08-19T13:52:37.312Z,106989.91
2022-08-19T13:55:06.488Z,107527.97
2022-08-19T13:57:35.822Z,108160.69
2022-08-19T14:00:18.503Z,108105.91
2022-08-19T14:02:47.647Z,107651.38
2022-08-19T14:05:18.517Z,107066.66
2022-08-19T14:07:49.104Z,106873.44
2022-08-19T14:10:18.144Z,106980.84
2022-08-19T14:12:47.042Z,107541.94
2022-08-19T14:15:16.623Z,108214.09
2022-08-19T14:17:50.319Z,108723.13
2022-08-19T14:20:18.920Z,109009.41
2022-08-19T14:22:54.012Z,109217.47
2022-08-19T14:25:24.548Z,109292.25
2022-08-19T14:27:53.399Z,109050.66
2022-08-19T14:30:26.548Z,108645.81
2022-08-19T14:32:55.127Z,108365.31
2022-08-19T14:35:24.032Z,108270.94
2022-08-19T14:37:56.744Z,108673.41
2022-08-19T14:40:27.676Z,108812.78
2022-08-19T14:43:00.313Z,108765.84
2022-08-19T14:45:38.984Z,108525.53
2022-08-19T14:48:12.554Z,108517.22
2022-08-19T14:50:47.708Z,108267.59
2022-08-19T14:53:18.405Z,108442.03
2022-08-19T14:55:48.156Z,108755.41
2022-08-19T14:58:29.086Z,109046.50
2022-08-19T15:01:04.559Z,108959.06
2022-08-19T15:03:38.544Z,109002.31
2022-08-19T15:06:07.793Z,108816.59
2022-08-19T15:08:42.047Z,108552.97
2022-08-19T15:11:12.119Z,108474.00
2022-08-19T15:13:41.167Z,108517.66
2022-08-19T15:16:25.692Z,108569.25
2022-08-19T15:19:01.926Z,108851.78
2022-08-19T15:21:31.836Z,108888.97
2022-08-19T15:24:14.495Z,109042.97
2022-08-19T15:26:43.818Z,108966.53
2022-08-19T15:29:13.988Z,108678.19
2022-08-19T15:31:42.550Z,108212.78
2022-08-19T15:34:10.834Z,107672.34
2022-08-19T15:36:40.954Z,107253.19
2022-08-19T15:39:13.057Z,106637.28
2022-08-19T15:41:41.196Z,106335.34
2022-08-19T15:44:12.472Z,106413.44
2022-08-19T15:46:43.793Z,106809.34
2022-08-19T15:49:14.326Z,106917.97
2022-08-19T15:51:44.094Z,107092.97
2022-08-19T15:54:16.538Z,107117.88
2022-08-19T15:57:07.777Z,107071.97
2022-08-19T15:59:55.039Z,106941.69
2022-08-19T16:02:44.329Z,106448.31
2022-08-19T16:05:34.618Z,106163.75
2022-08-19T16:08:02.771Z,106001.09
2022-08-19T16:10:32.473Z,105906.06
2022-08-19T16:13:00.759Z,105900.94
2022-08-19T16:15:31.520Z,105717.44
2022-08-19T16:18:02.451Z,105503.13
2022-08-19T16:20:33.193Z,105368.25
2022-08-19T16:23:06.552Z,105162.13
2022-08-19T16:25:36.528Z,104978.00
2022-08-19T16:28:06.339Z,104854.13
2022-08-19T16:30:38.605Z,104706.78
2022-08-19T16:33:07.316Z,104671.88
2022-08-19T16:35:35.647Z,104651.41
2022-08-19T16:38:04.020Z,104599.03
2022-08-19T16:40:32.322Z,104548.03
2022-08-19T16:43:02.494Z,104439.75
2022-08-19T16:45:31.799Z,104374.53
2022-08-19T16:48:00.160Z,104241.13
2022-08-19T16:50:46.226Z,104055.56
2022-08-19T16:53:32.117Z,103788.63
2022-08-19T16:56:01.748Z,103623.97
2022-08-19T16:58:34.275Z,103519.22
2022-08-19T17:01:04.975Z,103467.94
2022-08-19T17:03:36.467Z,103412.34
2022-08-19T17:06:18.359Z,103392.97
2022-08-19T17:08:49.406Z,103382.03
2022-08-19T17:11:18.874Z,103381.06
2022-08-19T17:13:52.386Z,103390.81
2022-08-19T17:16:24.860Z,103415.50
2022-08-19T17:18:57.079Z,103334.97
2022-08-19T17:21:33.990Z,103309.88
2022-08-19T17:24:05.167Z,103359.25
2022-08-19T17:26:33.411Z,103289.50
2022-08-19T17:29:03.113Z,103333.69
2022-08-19T17:31:32.585Z,103311.59
2022-08-19T17:34:01.233Z,103287.47
2022-08-19T17:36:35.954Z,103276.44
2022-08-19T17:39:05.274Z,103248.44
2022-08-19T17:41:34.927Z,103230.97
2022-08-19T17:44:05.742Z,103238.28
2022-08-19T17:46:34.006Z,103202.44
2022-08-19T17:49:02.194Z,103141.91
2022-08-19T17:51:42.494Z,103111.09
2022-08-19T17:54:12.659Z,103081.13
2022-08-19T17:56:41.814Z,103094.31
2022-08-19T17:59:14.302Z,103043.41
2022-08-19T18:01:53.259Z,103010.50
2022-08-19T18:04:24.979Z,102953.50
2022-08-19T18:06:54.963Z,102961.91
2022-08-19T18:09:38.629Z,102984.41
2022-08-19T18:12:11.491Z,102968.38
2022-08-19T18:14:43.025Z,102895.06
2022-08-19T18:17:14.025Z,102834.53
2022-08-19T18:19:44.156Z,102844.34
2022-08-19T18:22:13.761Z,102770.84
2022-08-19T18:24:46.030Z,102812.31
2022-08-19T18:27:14.553Z,102776.38
2022-08-19T18:29:43.981Z,102737.31
2022-08-19T18:32:13.800Z,102682.72
2022-08-19T18:34:43.076Z,102678.56
2022-08-19T18:37:11.682Z,102701.56
2022-08-19T18:39:58.072Z,102690.69
2022-08-19T18:42:44.099Z,102666.72
2022-08-19T18:45:31.428Z,102621.75
2022-08-19T18:48:26.334Z,102569.44
2022-08-19T18:50:55.313Z,102535.72
2022-08-19T18:53:23.321Z,102523.59
2022-08-19T18:55:53.983Z,102528.00
2022-08-19T18:58:26.183Z,102505.13
2022-08-19T19:00:57.552Z,102473.44
2022-08-19T19:03:26.401Z,102440.03
2022-08-19T19:05:54.722Z,102442.34
2022-08-19T19:08:27.125Z,102446.19
2022-08-19T19:10:56.309Z,102417.91
2022-08-19T19:13:24.373Z,102398.06
2022-08-19T19:15:52.461Z,102380.06
2022-08-19T19:18:22.097Z,102380.38
2022-08-19T19:20:50.051Z,102322.69
2022-08-19T19:23:18.001Z,102357.50
2022-08-19T19:25:50.196Z,102352.09
2022-08-19T19:28:25.383Z,102321.69
2022-08-19T19:30:54.400Z,102349.81
2022-08-19T19:33:23.695Z,102316.97
2022-08-19T19:35:51.572Z,102267.22
2022-08-19T19:38:19.903Z,102275.06
2022-08-19T19:40:47.965Z,102274.75
2022-08-19T19:43:18.441Z,102252.78
2022-08-19T19:45:48.436Z,102216.84
2022-08-19T19:48:16.898Z,102231.69
2022-08-19T19:50:46.702Z,102204.09
2022-08-19T19:53:24.270Z,102206.44
2022-08-19T19:55:57.938Z,102235.00
2022-08-19T19:58:28.818Z,102219.56
2022-08-19T20:00:58.189Z,102215.59
2022-08-19T20:03:26.593Z,102200.94
2022-08-19T20:05:59.187Z,102201.25
2022-08-19T20:08:44.719Z,102214.75
2022-08-19T20:11:13.019Z,102218.31
2022-08-19T20:13:41.424Z,102232.72
2022-08-19T20:16:09.538Z,102202.66
2022-08-19T20:18:40.258Z,102197.13
2022-08-19T20:21:09.518Z,102192.13
2022-08-19T20:23:39.584Z,102188.13
2022-08-19T20:26:08.504Z,102149.91
2022-08-19T20:28:50.661Z,102159.16
2022-08-19T20:31:27.017Z,102156.44
2022-08-19T20:33:58.163Z,102138.75
2022-08-19T20:36:27.628Z,102121.00
2022-08-19T20:38:55.573Z,102108.03
2022-08-19T20:41:23.775Z,102098.91
2022-08-19T20:43:52.655Z,102090.34
2022-08-19T20:46:20.510Z,102094.34
2022-08-19T20:48:48.771Z,102085.63
2022-08-19T20:51:18.227Z,102077.09
2022-08-19T20:53:47.617Z,102075.09
2022-08-19T20:56:19.253Z,102070.66
2022-08-19T20:58:51.839Z,102065.56
2022-08-19T21:01:22.608Z,102043.38
2022-08-19T21:03:51.784Z,102058.72
2022-08-19T21:06:20.434Z,102056.00
2022-08-19T21:08:54.670Z,102043.06
2022-08-19T21:11:22.827Z,102017.44
2022-08-19T21:13:50.821Z,102004.03
2022-08-19T21:16:18.932Z,101986.94
2022-08-19T21:18:52.410Z,101965.19
2022-08-19T21:21:20.647Z,101905.56
2022-08-19T21:23:49.689Z,101959.63
2022-08-19T21:26:21.106Z,101938.41
2022-08-19T21:28:49.302Z,101908.66
2022-08-19T21:31:18.008Z,101917.75
2022-08-19T21:33:46.527Z,101902.09
2022-08-19T21:36:14.502Z,101928.44
2022-08-19T21:38:42.516Z,101916.34
2022-08-19T21:41:10.918Z,101919.91
2022-08-19T21:43:40.687Z,101914.38
2022-08-19T21:46:09.075Z,101924.31
2022-08-19T21:48:37.743Z,101935.88
2022-08-19T21:51:05.957Z,101900.06
2022-08-19T21:53:34.834Z,101931.03
2022-08-19T21:56:03.143Z,101939.72
2022-08-19T21:58:31.483Z,101905.31
2022-08-19T22:01:06.118Z,101907.34
2022-08-19T22:03:34.474Z,101914.69
2022-08-19T22:06:02.810Z,101919.97
2022-08-19T22:08:31.613Z,101937.59
2022-08-19T22:11:00.358Z,101900.25
2022-08-19T22:13:29.325Z,101952.00
2022-08-19T22:15:57.860Z,101923.03
2022-08-19T22:18:28.203Z,101950.31
2022-08-19T22:20:56.804Z,101966.25
2022-08-19T22:23:24.844Z,101953.91
2022-08-19T22:25:52.762Z,101970.16
2022-08-19T22:28:27.881Z,102019.56
2022-08-19T22:31:31.629Z,102010.88
2022-08-19T22:34:01.889Z,102087.81
2022-08-19T22:36:31.821Z,102111.19
2022-08-19T22:39:24.496Z,102138.09
2022-08-19T22:51:40.780Z,102170.63
2022-08-19T22:54:11.394Z,102144.03
2022-08-19T22:56:39.413Z,102173.34
2022-08-19T22:59:08.624Z,102197.47
2022-08-19T23:01:37.302Z,102267.47
2022-08-19T23:04:05.857Z,102368.22
2022-08-19T23:06:39.116Z,102375.50
2022-08-19T23:09:10.356Z,102316.97
2022-08-19T23:11:42.128Z,102350.09
2022-08-19T23:14:11.658Z,102407.16
2022-08-19T23:16:41.712Z,102400.03
2022-08-19T23:19:10.068Z,102333.09
2022-08-19T23:21:39.825Z,102258.25
2022-08-19T23:24:08.280Z,102352.63
2022-08-19T23:26:36.336Z,102340.09
2022-08-19T23:29:23.434Z,102256.38
2022-08-19T23:31:51.846Z,102209.16
2022-08-19T23:34:19.950Z,102191.22
2022-08-19T23:36:50.512Z,102173.25
2022-08-19T23:39:19.267Z,102153.00
2022-08-19T23:41:47.389Z,102127.75
2022-08-19T23:44:15.805Z,102103.16
2022-08-19T23:46:55.258Z,102102.88
2022-08-19T23:49:26.498Z,102119.63
2022-08-19T23:51:56.583Z,102120.50
2022-08-19T23:54:27.477Z,102101.41
2022-08-19T23:57:14.400Z,102092.06
2022-08-19T23:59:45.706Z,102098.84
